Time;durP1;ratioP1;P1;durP2;ratioP2;P2;SDS_P1;SDS_P2;PMS_P1;PMS_P2;Temp;Humidity;BMP_temperature;BMP_pressure;BME280_temperature;BME280_humidity;BME280_pressure;Samples;Min_cycle;Max_cycle;Signal;HPM_P1;HPM_P2
2022/09/12 00:01:20;;;;;;;0.10;0.10;;;14.80;99.90;;;;;;5008742;28;20025;-80
2022/09/12 00:03:58;;;;;;;0.10;0.10;;;14.70;99.90;;;;;;5010152;28;20060;-82
2022/09/12 00:06:28;;;;;;;0.10;0.10;;;14.60;99.90;;;;;;5011021;28;20121;-84
2022/09/12 00:08:56;;;;;;;0.10;0.10;;;14.60;99.90;;;;;;5010252;28;20060;-92
2022/09/12 00:11:25;;;;;;;0.10;0.10;;;14.60;99.90;;;;;;5029468;28;20024;-84
2022/09/12 00:13:56;;;;;;;0.10;0.10;;;14.60;99.90;;;;;;5013925;28;20025;-85
2022/09/12 00:16:24;;;;;;;0.10;0.10;;;14.60;99.90;;;;;;5032207;28;20017;-91
2022/09/12 00:18:51;;;;;;;0.10;0.10;;;14.60;99.90;;;;;;5029999;28;20048;-84
2022/09/12 00:21:18;;;;;;;0.03;0.03;;;14.60;99.90;;;;;;5030916;28;20366;-82
2022/09/12 00:23:45;;;;;;;0.20;0.20;;;14.60;99.90;;;;;;5031126;28;20229;-92
2022/09/12 00:26:11;;;;;;;0.10;0.10;;;14.60;99.90;;;;;;5032043;28;20025;-93
2022/09/12 00:28:41;;;;;;;0.10;0.10;;;14.60;99.90;;;;;;5026787;28;20018;-86
2022/09/12 00:31:12;;;;;;;0.10;0.10;;;14.60;99.90;;;;;;5010677;28;20245;-83
2022/09/12 00:33:38;;;;;;;0.10;0.10;;;14.70;99.90;;;;;;5007088;28;20117;-87
2022/09/12 00:36:13;;;;;;;0.10;0.10;;;14.70;99.90;;;;;;5008207;28;20050;-83
2022/09/12 00:38:40;;;;;;;0.10;0.10;;;14.60;99.90;;;;;;5011819;28;20082;-90
2022/09/12 00:41:31;;;;;;;0.10;0.10;;;14.60;99.90;;;;;;5029299;28;20017;-92
2022/09/12 00:44:23;;;;;;;0.10;0.10;;;14.60;99.90;;;;;;5033826;28;20044;-90
2022/09/12 00:47:02;;;;;;;0.10;0.10;;;13.80;99.90;;;;;;5038344;28;20030;-89
2022/09/12 00:49:49;;;;;;;0.10;0.10;;;16.60;99.90;;;;;;5038052;28;20079;-93
2022/09/12 00:53:06;;;;;;;0.10;0.10;;;14.60;99.90;;;;;;5035342;28;20068;-91
2022/09/12 00:55:40;;;;;;;0.10;0.10;;;14.60;99.90;;;;;;4954511;28;20702;-90
2022/09/12 00:58:23;;;;;;;0.10;0.10;;;14.50;99.90;;;;;;4969197;28;20046;-82
2022/09/12 01:00:49;;;;;;;0.10;0.10;;;13.90;99.90;;;;;;4967719;28;20035;-83
2022/09/12 01:03:23;;;;;;;0.10;0.10;;;13.10;99.90;;;;;;4964056;28;20598;-86
2022/09/12 01:06:01;;;;;;;0.13;0.13;;;14.50;99.90;;;;;;4964927;28;20043;-80
2022/09/12 01:08:28;;;;;;;3.50;3.33;;;14.50;99.90;;;;;;4970733;28;20041;-86
2022/09/12 01:10:55;;;;;;;0.10;0.10;;;13.60;99.90;;;;;;4963831;28;20019;-84
2022/09/12 01:13:22;;;;;;;1.50;1.50;;;14.50;99.90;;;;;;4962327;28;20049;-84
2022/09/12 01:15:48;;;;;;;3.17;3.00;;;14.50;99.90;;;;;;4963721;28;20109;-88
2022/09/12 01:18:54;;;;;;;0.20;0.20;;;14.50;99.90;;;;;;4969591;28;20066;-85
2022/09/12 01:21:44;;;;;;;3.83;3.60;;;14.50;99.90;;;;;;4957529;28;20042;-82
2022/09/12 01:25:05;;;;;;;0.10;0.10;;;14.50;99.90;;;;;;4954421;29;20030;-83
2022/09/12 01:27:47;;;;;;;0.15;0.15;;;14.50;99.90;;;;;;4976525;28;20015;-87
2022/09/12 01:30:29;;;;;;;0.10;0.10;;;14.50;99.90;;;;;;4971191;29;20019;-80
2022/09/12 01:33:33;;;;;;;0.10;0.10;;;14.60;99.90;;;;;;4986062;28;20075;-92
2022/09/12 01:36:30;;;;;;;0.10;0.10;;;14.60;99.90;;;;;;4984383;28;20053;-83
2022/09/12 01:39:07;;;;;;;0.10;0.10;;;14.60;99.90;;;;;;4974449;28;20513;-92
2022/09/12 01:41:45;;;;;;;0.10;0.10;;;14.60;99.90;;;;;;4967714;28;20034;-92
2022/09/12 01:44:36;;;;;;;0.10;0.10;;;14.60;99.90;;;;;;4967756;28;20162;-89
2022/09/12 01:47:32;;;;;;;0.10;0.10;;;14.60;99.90;;;;;;4953571;28;20169;-88
2022/09/12 01:50:09;;;;;;;0.10;0.10;;;14.70;99.90;;;;;;4966452;28;20643;-90
2022/09/12 01:52:55;;;;;;;1.20;1.20;;;14.70;99.90;;;;;;4965632;28;20045;-87
2022/09/12 01:55:53;;;;;;;0.10;0.10;;;14.70;99.90;;;;;;4962055;28;20027;-93
2022/09/12 01:58:53;;;;;;;0.10;0.10;;;11.50;99.90;;;;;;4980904;28;20493;-93
2022/09/12 02:02:06;;;;;;;0.10;0.10;;;14.70;99.90;;;;;;5019654;28;20465;-92
2022/09/12 02:04:52;;;;;;;0.10;0.10;;;14.70;99.90;;;;;;5022974;28;20037;-93
2022/09/12 02:07:22;;;;;;;0.10;0.10;;;14.70;99.90;;;;;;5022964;28;20096;-91
2022/09/12 02:09:59;;;;;;;0.10;0.10;;;14.60;99.90;;;;;;5004311;28;20733;-87
2022/09/12 02:12:35;;;;;;;0.10;0.10;;;12.20;99.90;;;;;;5005585;28;20030;-88
2022/09/12 02:15:07;;;;;;;0.10;0.10;;;14.60;99.90;;;;;;5005056;28;20650;-92
2022/09/12 02:17:40;;;;;;;0.10;0.10;;;14.60;99.90;;;;;;5021032;28;20048;-90
2022/09/12 02:20:31;;;;;;;0.10;0.10;;;14.60;99.90;;;;;;5004297;28;20662;-84
2022/09/12 02:22:59;;;;;;;0.10;0.10;;;14.70;99.90;;;;;;5020706;28;20648;-86
2022/09/12 02:25:28;;;;;;;0.10;0.10;;;14.70;99.90;;;;;;5006830;28;20022;-88
2022/09/12 02:28:09;;;;;;;0.10;0.10;;;14.70;99.90;;;;;;5008645;28;20030;-89
2022/09/12 02:30:43;;;;;;;0.10;0.10;;;14.70;99.90;;;;;;5008760;28;20087;-90
2022/09/12 02:33:53;;;;;;;0.10;0.10;;;14.70;99.90;;;;;;4991982;28;20022;-88
2022/09/12 02:36:39;;;;;;;0.10;0.10;;;14.70;99.90;;;;;;5008768;28;20696;-89
2022/09/12 02:39:08;;;;;;;0.10;0.10;;;14.70;99.90;;;;;;5007541;28;20038;-94
2022/09/12 02:41:36;;;;;;;0.10;0.10;;;14.70;99.90;;;;;;5006475;28;20024;-91
2022/09/12 02:44:02;;;;;;;0.55;0.55;;;14.70;99.90;;;;;;4990468;28;20742;-86
2022/09/12 02:46:45;;;;;;;0.10;0.10;;;14.60;99.90;;;;;;5006957;28;20014;-91
2022/09/12 02:49:11;;;;;;;0.10;0.10;;;14.70;99.90;;;;;;5007620;28;20018;-90
2022/09/12 02:51:37;;;;;;;2.38;2.30;;;14.60;99.90;;;;;;4989834;28;20177;-92
2022/09/12 02:54:06;;;;;;;0.10;0.10;;;14.60;99.90;;;;;;5008186;28;20161;-83
2022/09/12 02:56:42;;;;;;;0.10;0.10;;;14.60;99.90;;;;;;5009156;28;20018;-92
2022/09/12 02:59:15;;;;;;;0.10;0.10;;;11.40;99.90;;;;;;5007897;28;20053;-86
2022/09/12 03:02:18;;;;;;;0.10;0.10;;;14.60;99.90;;;;;;5005385;28;20020;-86
2022/09/12 03:05:24;;;;;;;0.10;0.10;;;14.60;99.90;;;;;;5017109;28;20088;-90
2022/09/12 03:08:18;;;;;;;0.10;0.10;;;14.50;99.90;;;;;;5020837;28;20021;-87
2022/09/12 03:11:56;;;;;;;0.10;0.10;;;14.50;99.90;;;;;;5021113;28;20096;-93
2022/09/12 03:15:00;;;;;;;0.10;0.10;;;14.50;99.90;;;;;;4884766;29;20093;-87
2022/09/12 03:18:02;;;;;;;0.10;0.10;;;14.40;99.90;;;;;;4868148;29;20045;-87
2022/09/12 03:20:43;;;;;;;0.10;0.10;;;14.40;99.90;;;;;;4866433;29;20033;-92
2022/09/12 03:23:30;;;;;;;0.10;0.10;;;14.40;99.90;;;;;;4864856;29;20560;-93
2022/09/12 03:26:14;;;;;;;0.10;0.10;;;14.40;99.90;;;;;;4858236;29;20101;-88
2022/09/12 03:29:02;;;;;;;0.10;0.10;;;11.60;99.90;;;;;;4860100;29;20033;-90
2022/09/12 03:31:31;;;;;;;0.57;0.57;;;14.40;99.90;;;;;;4848835;29;20114;-91
2022/09/12 03:33:59;;;;;;;0.10;0.10;;;14.40;99.90;;;;;;4857163;29;20041;-91
2022/09/12 03:36:38;;;;;;;0.10;0.10;;;14.30;99.90;;;;;;4856854;29;20054;-80
2022/09/12 03:39:05;;;;;;;0.10;0.10;;;14.40;99.90;;;;;;4844081;29;20053;-79
2022/09/12 03:41:43;;;;;;;0.10;0.10;;;15.10;99.90;;;;;;4877843;29;20021;-92
2022/09/12 03:44:16;;;;;;;0.10;0.10;;;17.80;99.90;;;;;;4883709;29;20036;-78
2022/09/12 03:46:50;;;;;;;;;;;12.60;99.90;;;;;;4885671;29;20042;-88
2022/09/12 03:49:18;;;;;;;0.10;0.10;;;14.40;99.90;;;;;;4897048;29;19994;-82
2022/09/12 03:51:57;;;;;;;0.10;0.10;;;14.40;99.90;;;;;;4985275;28;20058;-90
2022/09/12 03:54:38;;;;;;;0.10;0.10;;;14.30;99.90;;;;;;4998924;28;20030;-93
2022/09/12 03:57:18;;;;;;;0.10;0.10;;;14.20;99.90;;;;;;5001589;28;20010;-92
2022/09/12 03:59:44;;;;;;;0.10;0.10;;;14.20;99.90;;;;;;5039011;28;20006;-91
2022/09/12 04:02:12;;;;;;;0.15;0.15;;;14.20;99.90;;;;;;5038537;28;20041;-89
2022/09/12 04:04:42;;;;;;;0.10;0.10;;;14.20;99.90;;;;;;5031877;28;20057;-79
2022/09/12 04:07:16;;;;;;;0.10;0.10;;;14.20;99.90;;;;;;5024798;28;20016;-82
2022/09/12 04:09:42;;;;;;;0.10;0.10;;;;;;;;;;5024633;28;20025;-84
2022/09/12 04:12:08;;;;;;;0.10;0.10;;;14.10;99.90;;;;;;5023788;28;20029;-78
2022/09/12 04:14:51;;;;;;;0.10;0.10;;;14.10;99.90;;;;;;5030130;28;20606;-92
2022/09/12 04:17:36;;;;;;;0.03;0.03;;;14.10;99.90;;;;;;5033273;28;20030;-84
2022/09/12 04:20:28;;;;;;;0.10;0.10;;;16.60;99.90;;;;;;5038037;28;20021;-83
2022/09/12 04:22:57;;;;;;;0.10;0.10;;;14.20;99.90;;;;;;5037798;28;20030;-81
2022/09/12 04:25:57;;;;;;;0.10;0.10;;;14.10;99.90;;;;;;5036012;28;20041;-78
2022/09/12 04:28:49;;;;;;;0.10;0.10;;;14.20;99.90;;;;;;5034971;28;20030;-83
2022/09/12 04:31:21;;;;;;;0.10;0.10;;;13.70;99.90;;;;;;5012917;28;20065;-79
2022/09/12 04:34:16;;;;;;;0.10;0.10;;;14.00;99.90;;;;;;5034484;28;20033;-81
2022/09/12 04:37:05;;;;;;;0.10;0.10;;;13.60;99.90;;;;;;5037459;28;20032;-88
2022/09/12 04:39:36;;;;;;;0.10;0.10;;;13.90;99.90;;;;;;5031014;28;20061;-86
2022/09/12 04:42:05;;;;;;;0.10;0.10;;;13.80;99.90;;;;;;5039424;28;20014;-87
2022/09/12 04:45:00;;;;;;;0.10;0.10;;;;;;;;;;5039076;28;20006;-83
2022/09/12 04:47:38;;;;;;;0.10;0.10;;;13.80;99.90;;;;;;5039091;28;20006;-82
2022/09/12 04:50:25;;;;;;;0.10;0.10;;;13.80;99.90;;;;;;5032616;28;20033;-77
2022/09/12 04:52:53;;;;;;;0.10;0.10;;;13.90;99.90;;;;;;5035942;28;20026;-85
2022/09/12 04:55:25;;;;;;;0.10;0.10;;;11.20;99.90;;;;;;5016453;28;20022;-81
2022/09/12 04:57:52;;;;;;;0.10;0.10;;;13.90;99.90;;;;;;5034729;28;20038;-77
2022/09/12 05:00:22;;;;;;;4.68;4.30;;;13.90;99.90;;;;;;5034007;28;20041;-83
2022/09/12 05:02:57;;;;;;;0.10;0.10;;;12.40;99.90;;;;;;5036496;28;20013;-88
2022/09/12 05:05:30;;;;;;;0.15;0.15;;;15.30;99.90;;;;;;5023875;28;20041;-86
2022/09/12 05:07:56;;;;;;;0.10;0.10;;;;;;;;;;5034418;28;20032;-84
2022/09/12 05:10:43;;;;;;;0.10;0.10;;;14.10;99.90;;;;;;5037087;28;20048;-85
2022/09/12 05:13:26;;;;;;;0.10;0.10;;;14.10;99.90;;;;;;5035923;28;20010;-85
2022/09/12 05:15:59;;;;;;;0.10;0.10;;;12.80;99.90;;;;;;5028423;28;20018;-81
2022/09/12 05:18:27;;;;;;;0.10;0.10;;;14.20;99.90;;;;;;5035707;28;20030;-90
2022/09/12 05:21:01;;;;;;;0.10;0.10;;;14.20;99.90;;;;;;5020775;28;20037;-91
2022/09/12 05:23:42;;;;;;;0.40;0.40;;;14.30;99.90;;;;;;5037712;28;20082;-89
2022/09/12 05:26:20;;;;;;;9.65;9.13;;;14.30;99.90;;;;;;5037885;28;20060;-83
2022/09/12 05:29:18;;;;;;;0.10;0.10;;;14.30;99.90;;;;;;5032023;28;20030;-87
2022/09/12 05:31:53;;;;;;;0.10;0.10;;;14.30;99.90;;;;;;5022523;28;20109;-89
2022/09/12 05:34:32;;;;;;;0.10;0.10;;;14.30;99.90;;;;;;5027806;28;20030;-82
2022/09/12 05:37:01;;;;;;;0.10;0.10;;;14.40;99.90;;;;;;5030984;28;20018;-86
2022/09/12 05:39:36;;;;;;;0.10;0.10;;;14.40;99.90;;;;;;5028662;28;20094;-90
2022/09/12 05:42:16;;;;;;;0.10;0.10;;;14.50;99.90;;;;;;5025391;28;20042;-83
2022/09/12 05:45:03;;;;;;;0.10;0.10;;;13.70;99.90;;;;;;5026711;28;20024;-80
2022/09/12 05:47:58;;;;;;;0.10;0.10;;;14.60;99.90;;;;;;5031192;28;20017;-79
2022/09/12 05:50:29;;;;;;;0.10;0.10;;;14.60;99.90;;;;;;5036003;28;20014;-77
2022/09/12 05:52:56;;;;;;;0.10;0.10;;;14.70;99.90;;;;;;5019301;28;20046;-90
2022/09/12 05:55:23;;;;;;;1.05;1.05;;;14.80;99.90;;;;;;5022887;28;20037;-77
2022/09/12 05:57:50;;;;;;;0.15;0.15;;;14.80;99.90;;;;;;5024165;28;20037;-86
2022/09/12 06:00:27;;;;;;;0.10;0.10;;;14.90;99.90;;;;;;5020894;28;20025;-78
2022/09/12 06:02:57;;;;;;;0.10;0.10;;;18.30;99.90;;;;;;5021260;28;20057;-78
2022/09/12 06:05:35;;;;;;;0.10;0.10;;;14.90;99.90;;;;;;5027947;28;20029;-77
2022/09/12 06:08:54;;;;;;;0.10;0.10;;;15.10;99.90;;;;;;5010099;28;20026;-78
2022/09/12 06:11:39;;;;;;;0.10;0.10;;;16.00;99.90;;;;;;4968422;28;20572;-78
2022/09/12 06:14:20;;;;;;;0.10;0.10;;;15.80;99.90;;;;;;4972377;28;20481;-80
2022/09/12 06:16:54;;;;;;;0.10;0.10;;;15.30;99.90;;;;;;4947739;28;20034;-78
2022/09/12 06:19:26;;;;;;;0.10;0.10;;;14.10;99.90;;;;;;4963819;28;20117;-81
2022/09/12 06:21:53;;;;;;;0.47;0.47;;;15.40;99.90;;;;;;4962823;28;20027;-78
2022/09/12 06:24:29;;;;;;;0.40;0.40;;;15.40;99.90;;;;;;4963157;28;20034;-85
2022/09/12 06:27:01;;;;;;;0.10;0.10;;;15.40;99.90;;;;;;4973485;28;20034;-90
2022/09/12 06:29:39;;;;;;;0.10;0.10;;;15.30;99.90;;;;;;4948935;28;20039;-79
2022/09/12 06:32:34;;;;;;;0.10;0.10;;;14.20;99.90;;;;;;4949511;28;20050;-77
2022/09/12 06:35:06;;;;;;;0.10;0.10;;;15.30;99.90;;;;;;4931272;29;20066;-78
2022/09/12 06:37:36;;;;;;;0.10;0.10;;;15.30;99.90;;;;;;4948528;28;20062;-79
2022/09/12 06:40:19;;;;;;;1.88;1.63;;;15.60;99.90;;;;;;4958157;28;20035;-78
2022/09/12 06:43:00;;;;;;;0.10;0.10;;;15.50;99.90;;;;;;4986672;28;20026;-79
2022/09/12 06:45:34;;;;;;;0.10;0.10;;;15.30;99.90;;;;;;4978943;28;20022;-79
2022/09/12 06:48:05;;;;;;;;;;;15.10;99.90;;;;;;4974985;28;20029;-78
2022/09/12 06:50:32;;;;;;;0.10;0.10;;;15.50;99.90;;;;;;4976883;28;19944;-79
2022/09/12 06:53:01;;;;;;;0.10;0.10;;;15.00;99.90;;;;;;4990810;28;20045;-78
2022/09/12 06:55:44;;;;;;;0.10;0.10;;;16.50;99.90;;;;;;5016308;28;20038;-77
2022/09/12 06:58:16;;;;;;;0.10;0.10;;;15.50;99.90;;;;;;5010014;28;20135;-79
2022/09/12 07:00:45;;;;;;;0.10;0.10;;;15.20;99.90;;;;;;5018947;28;20030;-87
2022/09/12 07:03:42;;;;;;;0.10;0.10;;;15.50;99.90;;;;;;5033093;28;20105;-77
2022/09/12 07:06:18;;;;;;;0.10;0.10;;;15.40;99.90;;;;;;5005334;28;20018;-76
2022/09/12 07:09:15;;;;;;;0.10;0.10;;;15.90;99.90;;;;;;5025806;28;20040;-77
2022/09/12 07:11:54;;;;;;;0.03;0.03;;;15.80;99.90;;;;;;5023763;28;20033;-80
2022/09/12 07:14:51;;;;;;;0.10;0.10;;;16.30;99.90;;;;;;5051357;28;20040;-79
2022/09/12 07:17:23;;;;;;;0.43;0.43;;;16.10;99.90;;;;;;5001041;28;20056;-77
2022/09/12 07:20:04;;;;;;;0.10;0.10;;;17.50;99.90;;;;;;5052452;28;20077;-76
2022/09/12 07:22:30;;;;;;;0.88;0.28;;;14.90;99.90;;;;;;5045578;28;20060;-77
2022/09/12 07:24:56;;;;;;;0.10;0.10;;;16.30;99.90;;;;;;5015132;28;20103;-78
2022/09/12 07:27:22;;;;;;;0.10;0.10;;;16.40;99.90;;;;;;5017153;28;20029;-78
2022/09/12 07:30:05;;;;;;;0.10;0.10;;;16.60;99.90;;;;;;5000512;28;20222;-75
2022/09/12 07:32:44;;;;;;;0.10;0.10;;;17.10;99.90;;;;;;5014260;28;20101;-75
2022/09/12 07:35:10;;;;;;;0.10;0.10;;;16.70;99.90;;;;;;5009133;28;20752;-78
2022/09/12 07:40:49;;;;;;;0.00;0.00;;;16.50;99.90;;;;;;5014446;28;20760;-78
2022/09/12 07:43:17;;;;;;;0.10;0.10;;;14.70;99.90;;;;;;4995998;28;20068;-77
2022/09/12 07:46:04;;;;;;;0.20;0.20;;;17.10;99.90;;;;;;5010392;28;20029;-76
2022/09/12 07:48:31;;;;;;;0.10;0.10;;;17.00;99.90;;;;;;5011238;28;20045;-78
2022/09/12 07:51:02;;;;;;;0.10;0.10;;;17.10;99.90;;;;;;4992963;28;20025;-76
2022/09/12 07:53:33;;;;;;;0.10;0.10;;;17.00;99.90;;;;;;5012129;28;20052;-78
2022/09/12 07:56:11;;;;;;;0.10;0.10;;;17.10;99.90;;;;;;5002565;28;20105;-77
2022/09/12 07:58:49;;;;;;;0.00;0.00;;;17.20;99.90;;;;;;5015082;28;20080;-77
2022/09/12 08:01:15;;;;;;;0.10;0.10;;;17.30;99.90;;;;;;5015774;28;20049;-86
2022/09/12 08:03:52;;;;;;;0.00;0.00;;;17.30;99.90;;;;;;5024633;28;20432;-89
2022/09/12 08:06:22;;;;;;;0.20;0.20;;;17.40;99.90;;;;;;4998520;28;20042;-78
2022/09/12 08:08:49;;;;;;;0.10;0.10;;;17.50;99.90;;;;;;5011067;28;20021;-84
2022/09/12 08:11:19;;;;;;;0.10;0.10;;;17.80;99.90;;;;;;5006508;28;20048;-90
2022/09/12 08:13:51;;;;;;;0.10;0.10;;;17.70;99.90;;;;;;5024043;28;20021;-91
2022/09/12 08:16:25;;;;;;;0.05;0.05;;;18.10;99.90;;;;;;5027253;28;20735;-77
2022/09/12 08:18:54;;;;;;;0.10;0.10;;;18.90;99.90;;;;;;5005950;28;20120;-78
2022/09/12 08:21:30;;;;;;;0.20;0.20;;;18.50;99.90;;;;;;5007219;28;20025;-85
2022/09/12 08:24:01;;;;;;;0.03;0.03;;;18.50;99.90;;;;;;5027727;28;20013;-93
2022/09/12 08:26:48;;;;;;;0.40;0.40;;;18.30;99.90;;;;;;5029517;28;20025;-82
2022/09/12 08:29:14;;;;;;;0.10;0.10;;;18.10;99.90;;;;;;5012530;28;20676;-83
2022/09/12 08:31:43;;;;;;;0.10;0.10;;;18.00;99.90;;;;;;5008614;28;20013;-77
2022/09/12 08:34:11;;;;;;;0.10;0.10;;;21.10;99.90;;;;;;5018848;28;20036;-86
2022/09/12 08:36:47;;;;;;;0.10;0.10;;;17.80;99.90;;;;;;5022986;28;20021;-85
2022/09/12 08:39:24;;;;;;;0.10;0.10;;;17.80;99.90;;;;;;5024668;28;20041;-92
2022/09/12 08:42:19;;;;;;;0.10;0.10;;;17.90;99.90;;;;;;5017699;28;20025;-96
2022/09/12 08:45:21;;;;;;;0.10;0.10;;;18.20;99.90;;;;;;5024404;28;20030;-89
2022/09/12 08:47:49;;;;;;;0.00;0.00;;;18.30;99.90;;;;;;4925664;29;20046;-81
2022/09/12 08:50:18;;;;;;;0.68;0.68;;;18.00;99.90;;;;;;4925610;29;20023;-86
2022/09/12 08:53:09;;;;;;;0.10;0.10;;;17.80;99.90;;;;;;4928362;29;20039;-85
2022/09/12 08:55:59;;;;;;;0.00;0.00;;;18.50;99.90;;;;;;4903016;29;20046;-78
2022/09/12 08:58:27;;;;;;;0.10;0.10;;;17.70;99.90;;;;;;4920217;29;20110;-91
2022/09/12 09:01:06;;;;;;;0.10;0.10;;;17.80;99.90;;;;;;4931372;29;20043;-91
2022/09/12 09:04:09;;;;;;;0.10;0.10;;;17.70;99.90;;;;;;4932013;29;20422;-91
2022/09/12 09:07:02;;;;;;;0.10;0.10;;;17.60;99.90;;;;;;4913312;29;20490;-86
2022/09/12 09:10:21;;;;;;;0.00;0.00;;;17.50;99.90;;;;;;4934522;29;20032;-88
2022/09/12 09:16:52;;;;;;;0.10;0.10;;;17.80;99.90;;;;;;4905729;29;20023;-79
2022/09/12 09:19:25;;;;;;;0.20;0.20;;;18.30;99.90;;;;;;4889559;29;20116;-80
2022/09/12 09:22:06;;;;;;;0.10;0.10;;;18.60;99.90;;;;;;4889013;29;20044;-83
2022/09/12 09:24:51;;;;;;;0.10;0.10;;;18.90;99.90;;;;;;4917964;29;20036;-80
2022/09/12 09:27:30;;;;;;;0.00;0.00;;;19.20;99.90;;;;;;4931543;29;20020;-78
2022/09/12 09:30:04;;;;;;;0.10;0.10;;;19.90;99.90;;;;;;4942208;29;20075;-88
2022/09/12 09:32:39;;;;;;;;;;;19.90;99.90;;;;;;4928165;29;20032;-84
2022/09/12 09:35:17;;;;;;;0.10;0.10;;;22.40;99.90;;;;;;4923969;29;20379;-78
2022/09/12 09:38:14;;;;;;;0.20;0.20;;;20.10;99.90;;;;;;4930900;29;20046;-92
2022/09/12 09:41:23;;;;;;;0.08;0.08;;;19.90;99.90;;;;;;4962005;28;20039;-83
2022/09/12 09:43:52;;;;;;;1.10;1.10;;;;;;;;;;4962063;28;20106;-92
2022/09/12 09:46:20;;;;;;;0.00;0.00;;;19.40;99.90;;;;;;4961899;29;20035;-91
2022/09/12 09:49:04;;;;;;;0.10;0.10;;;19.10;99.90;;;;;;4950359;28;20019;-85
2022/09/12 09:52:02;;;;;;;0.10;0.10;;;18.90;99.90;;;;;;4986822;28;20050;-86
2022/09/12 09:54:36;;;;;;;0.10;0.10;;;19.20;99.90;;;;;;4987521;28;20914;-87
2022/09/12 09:57:43;;;;;;;0.08;0.08;;;19.30;99.90;;;;;;5000708;28;20027;-79
2022/09/12 10:00:47;;;;;;;0.10;0.10;;;18.60;99.90;;;;;;5004512;28;20049;-80
2022/09/12 10:03:48;;;;;;;0.10;0.10;;;19.30;99.90;;;;;;4970709;28;20708;-80
2022/09/12 10:06:39;;;;;;;0.20;0.20;;;18.40;99.90;;;;;;4970321;28;20033;-86
2022/09/12 10:09:31;;;;;;;0.25;0.25;;;22.10;99.90;;;;;;4972333;28;20035;-93
2022/09/12 10:12:18;;;;;;;0.10;0.10;;;21.50;99.90;;;;;;4962107;28;20027;-77
2022/09/12 10:15:02;;;;;;;0.10;0.10;;;19.10;99.90;;;;;;4973297;28;20576;-76
2022/09/12 10:17:41;;;;;;;1.90;1.55;;;16.00;99.90;;;;;;4951498;28;20090;-80
2022/09/12 10:20:32;;;;;;;0.10;0.10;;;19.40;99.90;;;;;;4935864;29;20298;-78
2022/09/12 10:23:18;;;;;;;0.10;0.10;;;19.50;99.90;;;;;;4963824;28;20023;-81
2022/09/12 10:25:53;;;;;;;0.10;0.10;;;19.60;99.90;;;;;;4964964;28;20490;-76
2022/09/12 10:28:29;;;;;;;0.00;0.00;;;19.60;99.90;;;;;;4948213;29;20242;-76
2022/09/12 10:31:00;;;;;;;0.10;0.10;;;19.50;99.90;;;;;;4941482;29;20672;-79
2022/09/12 10:33:33;;;;;;;0.10;0.10;;;19.50;99.90;;;;;;4932906;29;20046;-85
2022/09/12 10:36:04;;;;;;;0.20;0.20;;;19.60;99.10;;;;;;4949096;28;20035;-80
2022/09/12 10:38:33;;;;;;;0.93;0.50;;;19.70;99.10;;;;;;5029941;28;20057;-83
2022/09/12 10:41:15;;;;;;;0.00;0.00;;;19.60;99.70;;;;;;4996398;28;20026;-90
2022/09/12 10:43:42;;;;;;;0.10;0.10;;;20.10;99.90;;;;;;4999526;28;20033;-88
2022/09/12 10:46:30;;;;;;;0.03;0.03;;;19.80;99.80;;;;;;5033723;28;20025;-80
2022/09/12 10:49:55;;;;;;;0.05;0.05;;;19.90;98.90;;;;;;5015872;28;20052;-77
2022/09/12 10:52:37;;;;;;;0.10;0.10;;;20.00;98.90;;;;;;4982800;28;20049;-80
2022/09/12 10:55:12;;;;;;;0.10;0.10;;;19.70;99.10;;;;;;5062854;23;20061;-78
2022/09/12 10:57:55;;;;;;;0.10;0.10;;;20.10;99.30;;;;;;5062042;28;20040;-90
2022/09/12 11:00:26;;;;;;;0.10;0.10;;;19.00;99.00;;;;;;5078904;28;20464;-82
2022/09/12 11:04:02;;;;;;;0.20;0.20;;;19.50;98.80;;;;;;5082456;28;20050;-80
2022/09/12 11:06:47;;;;;;;0.10;0.10;;;20.80;98.40;;;;;;5074554;28;20040;-80
2022/09/12 11:09:26;;;;;;;0.10;0.10;;;21.60;96.50;;;;;;5072916;28;20021;-83
2022/09/12 11:12:26;;;;;;;0.00;0.00;;;21.60;96.70;;;;;;5080936;28;20017;-88
2022/09/12 11:15:16;;;;;;;0.10;0.10;;;21.70;95.00;;;;;;5079063;28;20043;-82
2022/09/12 11:18:19;;;;;;;0.03;0.03;;;20.70;94.30;;;;;;5083699;28;20024;-80
2022/09/12 11:20:47;;;;;;;0.10;0.10;;;22.10;94.30;;;;;;5065883;28;20044;-80
2022/09/12 11:23:19;;;;;;;0.03;0.03;;;20.90;94.60;;;;;;5084832;28;20024;-80
2022/09/12 11:26:27;;;;;;;0.10;0.10;;;20.50;94.70;;;;;;5056810;28;20041;-80
2022/09/12 11:29:23;;;;;;;0.10;0.10;;;21.70;94.30;;;;;;5073953;28;20095;-79
2022/09/12 11:32:27;;;;;;;0.10;0.10;;;22.20;93.90;;;;;;5085158;28;20012;-82
2022/09/12 11:35:33;;;;;;;0.00;0.00;;;22.70;92.80;;;;;;4989282;28;20030;-81
2022/09/12 11:38:20;;;;;;;1.13;1.13;;;23.00;91.20;;;;;;4947225;29;20040;-88
2022/09/12 11:41:08;;;;;;;0.00;0.00;;;23.00;91.50;;;;;;4944699;29;20032;-81
2022/09/12 11:44:03;;;;;;;0.03;0.03;;;23.20;91.40;;;;;;4922852;29;20043;-80
2022/09/12 11:46:48;;;;;;;0.00;0.00;;;22.50;91.20;;;;;;4944023;29;20032;-95
2022/09/12 11:49:25;;;;;;;0.00;0.00;;;20.70;90.70;;;;;;4914409;29;20016;-85
2022/09/12 11:55:00;;;;;;;0.00;0.00;;;23.00;90.70;;;;;;5056307;22;20738;-79
2022/09/12 11:57:48;;;;;;;0.00;0.00;;;23.30;91.60;;;;;;5046967;28;20297;-79
2022/09/12 12:00:18;;;;;;;0.00;0.00;;;23.40;89.40;;;;;;5014472;28;20040;-86
2022/09/12 12:03:06;;;;;;;0.10;0.10;;;23.30;87.60;;;;;;5034160;28;20025;-78
2022/09/12 12:06:03;;;;;;;0.00;0.00;;;23.40;85.00;;;;;;5032660;28;20027;-86
2022/09/12 12:08:38;;;;;;;0.10;0.10;;;21.80;82.40;;;;;;5050943;28;20068;-77
2022/09/12 12:11:29;;;;;;;0.08;0.08;;;23.70;84.20;;;;;;5016129;28;20029;-85
2022/09/12 12:14:24;;;;;;;0.10;0.10;;;24.00;83.10;;;;;;5032864;28;20497;-78
2022/09/12 12:16:55;;;;;;;2.50;2.28;;;24.70;82.50;;;;;;5030276;28;20021;-87
2022/09/12 12:19:35;;;;;;;0.00;0.00;;;23.80;81.40;;;;;;5037343;28;20025;-80
2022/09/12 12:22:30;;;;;;;0.00;0.00;;;24.50;82.70;;;;;;5050703;28;20024;-88
2022/09/12 12:25:28;;;;;;;0.00;0.00;;;24.40;78.80;;;;;;4964560;28;20034;-83
2022/09/12 12:28:00;;;;;;;0.00;0.00;;;24.70;80.40;;;;;;4969461;28;20022;-93
2022/09/12 12:30:38;;;;;;;0.22;0.22;;;24.90;77.90;;;;;;4969313;28;20036;-94
2022/09/12 12:33:33;;;;;;;0.63;0.52;;;26.90;77.90;;;;;;4978432;28;20542;-92
2022/09/12 12:35:59;;;;;;;0.00;0.00;;;24.40;75.30;;;;;;4919307;29;20032;-87
2022/09/12 12:38:58;;;;;;;0.00;0.00;;;24.20;76.40;;;;;;4922554;29;20098;-91
2022/09/12 12:41:29;;;;;;;0.00;0.00;;;23.20;75.10;;;;;;4860041;29;20040;-78
2022/09/12 12:43:58;;;;;;;0.10;0.10;;;;;;;;;;4876040;29;20570;-87
2022/09/12 12:46:27;;;;;;;0.00;0.00;;;22.80;77.10;;;;;;4874397;29;20059;-78
2022/09/12 12:49:17;;;;;;;0.10;0.10;;;22.90;78.20;;;;;;4873218;29;20037;-83
2022/09/12 12:51:55;;;;;;;0.70;0.40;;;22.70;77.60;;;;;;4871658;29;20041;-84
2022/09/12 12:54:34;;;;;;;0.10;0.10;;;22.60;77.50;;;;;;4871585;29;20136;-80
2022/09/12 12:57:05;;;;;;;0.10;0.10;;;22.80;77.90;;;;;;4855130;29;20108;-79
2022/09/12 12:59:34;;;;;;;0.43;0.43;;;23.70;80.30;;;;;;4879004;29;20059;-88
2022/09/12 13:02:00;;;;;;;0.00;0.00;;;23.30;77.80;;;;;;4903363;29;20092;-86
2022/09/12 13:04:33;;;;;;;0.00;0.00;;;23.80;77.90;;;;;;4921855;29;20691;-78
2022/09/12 13:07:07;;;;;;;0.30;0.30;;;24.20;75.60;;;;;;4918756;29;20029;-81
2022/09/12 13:09:58;;;;;;;0.00;0.00;;;24.70;72.80;;;;;;4915057;29;20039;-78
2022/09/12 13:12:46;;;;;;;0.20;0.20;;;25.50;73.90;;;;;;5001641;28;20064;-77
2022/09/12 13:15:39;;;;;;;0.00;0.00;;;26.50;70.10;;;;;;5046823;28;20087;-86
2022/09/12 13:18:34;;;;;;;0.00;0.00;;;27.00;66.00;;;;;;5034451;28;20032;-83
2022/09/12 13:21:18;;;;;;;0.00;0.00;;;27.90;66.50;;;;;;5012761;28;20029;-82
2022/09/12 13:24:14;;;;;;;0.00;0.00;;;27.70;64.10;;;;;;5050126;28;20029;-82
2022/09/12 13:26:51;;;;;;;0.00;0.00;;;28.30;64.90;;;;;;5033264;28;20033;-83
2022/09/12 13:29:23;;;;;;;0.00;0.00;;;23.60;61.00;;;;;;5036915;28;20033;-78
2022/09/12 13:31:57;;;;;;;0.00;0.00;;;26.20;63.50;;;;;;5013995;28;20107;-80
2022/09/12 13:34:33;;;;;;;0.00;0.00;;;26.40;64.20;;;;;;5055861;28;20111;-78
2022/09/12 13:37:36;;;;;;;0.10;0.10;;;25.90;65.70;;;;;;5057150;28;20027;-79
2022/09/12 13:40:23;;;;;;;0.00;0.00;;;25.40;65.70;;;;;;5034773;28;20033;-78
2022/09/12 13:43:04;;;;;;;0.00;0.00;;;24.50;66.50;;;;;;5039184;28;20021;-78
2022/09/12 13:45:36;;;;;;;0.00;0.00;;;24.50;67.60;;;;;;5059301;28;20040;-78
2022/09/12 13:48:05;;;;;;;0.00;0.00;;;24.90;66.50;;;;;;5060551;28;20084;-79
2022/09/12 13:50:57;;;;;;;0.00;0.00;;;27.40;68.00;;;;;;5057448;28;20025;-78
2022/09/12 13:53:27;;;;;;;0.00;0.00;;;25.50;65.70;;;;;;5049449;28;20050;-86
2022/09/12 13:55:57;;;;;;;0.00;0.00;;;25.60;65.40;;;;;;5032645;28;20017;-94
2022/09/12 13:58:33;;;;;;;0.00;0.00;;;25.30;65.00;;;;;;5056818;28;20033;-84
2022/09/12 14:01:07;;;;;;;0.10;0.10;;;24.90;63.90;;;;;;5038061;28;20016;-80
2022/09/12 14:06:26;;;;;;;0.00;0.00;;;24.20;68.00;;;;;;5050649;28;20020;-79
2022/09/12 14:08:57;;;;;;;0.00;0.00;;;22.90;68.30;;;;;;5040835;28;20028;-79
2022/09/12 14:11:32;;;;;;;2.80;2.40;;;23.20;69.50;;;;;;5060360;28;20043;-85